Saint Marys City, Maryland
Current Conditions -  °F | °C
As of 3:53 PM on Monday 24 Nov 2014 (Local Time) from KNUI Reporting Station
Clear Clear  
Wind Chill: 21°   Ceiling: Unl
Heat Index: 21°   Visibility: 10mi
Dew Point: 11°   Wind: 14mph
Humidity: 54%   Direction: 190°S
Pressure: 29.69"   Gusts: NA
Location:  38.19°N, 76.43°W
Report Text: KNUI 242053Z AUTO 19012KT 10SM CLR 21/11 A2969 RMK AO2 SLP053 T02060111 53004
Loading
Personal Weather Stations






























Interactive Weather Map New forecast layout! Learn more

10-Day Weather Forecast

Advertisements
Track Severe Weather on mobile